createdAt,value
2023-03-30T00:01:29.396Z,980.7
2023-03-30T00:03:38.473Z,980.7
2023-03-30T00:07:32.982Z,980.8
2023-03-30T00:09:34.403Z,980.7
2023-03-30T00:11:35.424Z,980.7
2023-03-30T00:13:36.510Z,980.7
2023-03-30T00:17:39.823Z,980.8
2023-03-30T00:20:25.121Z,980.7
2023-03-30T00:24:28.036Z,980.7
2023-03-30T00:28:31.213Z,980.7
2023-03-30T00:30:33.017Z,980.6
2023-03-30T00:34:35.937Z,980.5
2023-03-30T00:40:40.567Z,980.4
2023-03-30T00:44:43.831Z,980.3
2023-03-30T00:46:45.556Z,980.3
2023-03-30T00:48:46.485Z,980.4
2023-03-30T00:50:48.053Z,980.1
2023-03-30T00:54:50.801Z,980.2
2023-03-30T00:56:51.794Z,980.1
2023-03-30T01:00:54.010Z,980.2
2023-03-30T01:02:55.748Z,980.1
2023-03-30T01:06:57.922Z,980.1
2023-03-30T01:11:00.926Z,980
2023-03-30T01:13:02.122Z,979.9
2023-03-30T01:17:04.427Z,979.9
2023-03-30T01:19:05.872Z,979.9
2023-03-30T01:23:09.351Z,979.9
2023-03-30T01:27:11.517Z,979.8
2023-03-30T01:29:13.089Z,979.8
2023-03-30T01:33:15.685Z,979.8
2023-03-30T01:37:18.483Z,979.8
2023-03-30T01:39:20.167Z,979.8
2023-03-30T01:43:22.086Z,979.8
2023-03-30T01:45:23.716Z,979.8
2023-03-30T01:49:27.074Z,979.8
2023-03-30T01:53:29.777Z,979.8
2023-03-30T01:55:31.188Z,979.7
2023-03-30T01:59:34.259Z,979.7
2023-03-30T02:01:36.066Z,979.8
2023-03-30T02:05:38.863Z,979.8
2023-03-30T02:09:42.406Z,979.8
2023-03-30T02:11:44.108Z,979.8
2023-03-30T02:15:47.446Z,979.8
2023-03-30T02:19:50.082Z,979.8
2023-03-30T02:21:51.350Z,979.8
2023-03-30T02:25:54.203Z,979.7
2023-03-30T02:27:55.766Z,979.8
2023-03-30T02:31:59.055Z,979.8
2023-03-30T02:36:01.629Z,979.8
2023-03-30T02:38:02.967Z,979.8
2023-03-30T02:42:05.874Z,979.7
2023-03-30T02:44:07.228Z,979.8
2023-03-30T02:48:10.498Z,979.8
2023-03-30T02:52:13.682Z,979.6
2023-03-30T02:54:15.175Z,979.7
2023-03-30T02:58:17.360Z,979.6
2023-03-30T03:02:20.344Z,979.6
2023-03-30T03:04:22.138Z,979.7
2023-03-30T03:08:24.712Z,979.6
2023-03-30T03:10:25.702Z,979.8
2023-03-30T03:12:27.382Z,979.9
2023-03-30T03:14:28.803Z,979.9
2023-03-30T03:18:31.455Z,980
2023-03-30T03:20:32.702Z,979.8
2023-03-30T03:22:34.197Z,980
2023-03-30T03:24:35.378Z,979.9
2023-03-30T03:26:36.678Z,980
2023-03-30T03:30:39.192Z,980
2023-03-30T03:32:40.341Z,980
2023-03-30T03:34:41.206Z,980.1
2023-03-30T03:36:42.336Z,980.1
2023-03-30T03:40:44.845Z,979.8
2023-03-30T03:42:46.565Z,979.8
2023-03-30T03:46:49.231Z,979.8
2023-03-30T03:50:51.576Z,979.7
2023-03-30T03:52:52.765Z,979.7
2023-03-30T03:56:55.129Z,979.8
2023-03-30T04:00:57.882Z,979.7
2023-03-30T04:02:58.833Z,979.7
2023-03-30T04:07:01.355Z,979.8
2023-03-30T04:09:02.605Z,979.8
2023-03-30T04:13:05.786Z,979.8
2023-03-30T04:17:08.598Z,979.7
2023-03-30T04:19:09.789Z,979.8
2023-03-30T04:23:12.558Z,979.8
2023-03-30T04:25:13.658Z,979.7
2023-03-30T04:29:16.641Z,979.7
2023-03-30T04:33:19.633Z,979.8
2023-03-30T04:35:21.151Z,979.7
2023-03-30T04:39:24.013Z,979.6
2023-03-30T04:43:26.995Z,979.7
2023-03-30T04:45:28.698Z,979.5
2023-03-30T04:49:31.057Z,979.5
2023-03-30T04:51:32.549Z,979.3
2023-03-30T04:55:35.603Z,979.3
2023-03-30T04:59:38.315Z,979.2
2023-03-30T05:01:39.346Z,979.1
2023-03-30T05:05:42.114Z,978.9
2023-03-30T05:07:43.028Z,978.9
2023-03-30T05:11:46.236Z,978.8
2023-03-30T05:15:49.004Z,978.8
2023-03-30T05:17:50.164Z,978.8
2023-03-30T05:21:53.589Z,978.6
2023-03-30T05:27:58.155Z,978.3
2023-03-30T05:32:01.169Z,978.3
2023-03-30T05:34:02.961Z,978.4
2023-03-30T05:36:04.823Z,978.5
2023-03-30T05:38:05.762Z,978.5
2023-03-30T05:42:07.934Z,978.7
2023-03-30T05:44:09.791Z,978.8
2023-03-30T05:46:11.510Z,978.9
2023-03-30T05:48:12.668Z,978.9
2023-03-30T05:50:14.029Z,978.7
2023-03-30T05:54:16.045Z,978.7
2023-03-30T05:58:19.345Z,978.6
2023-03-30T06:00:21.027Z,978.6
2023-03-30T06:04:23.360Z,978.4
2023-03-30T06:06:24.536Z,978.6
2023-03-30T06:10:27.709Z,978.5
2023-03-30T06:14:30.141Z,978.4
2023-03-30T06:16:32.066Z,978.6
2023-03-30T06:20:34.816Z,978.7
2023-03-30T06:24:37.220Z,978.9
2023-03-30T06:26:38.298Z,979
2023-03-30T06:30:41.806Z,979.1
2023-03-30T06:32:43.604Z,979.1
2023-03-30T06:36:46.285Z,979.3
2023-03-30T06:40:49.304Z,979.7
2023-03-30T06:42:50.895Z,979.7
2023-03-30T06:46:53.747Z,979.7
2023-03-30T06:48:55.305Z,979.9
2023-03-30T06:52:58.638Z,980.2
2023-03-30T06:57:01.276Z,980
2023-03-30T06:59:02.705Z,980
2023-03-30T07:03:05.459Z,980
2023-03-30T07:07:52.205Z,979.9
2023-03-30T07:09:53.658Z,980
2023-03-30T07:13:56.403Z,980.1
2023-03-30T07:17:59.532Z,980.2
2023-03-30T07:20:00.828Z,980.2
2023-03-30T07:24:04.198Z,980.3
2023-03-30T07:26:05.818Z,980.2
2023-03-30T07:30:18.403Z,980.3
2023-03-30T07:34:11.899Z,980.3
2023-03-30T07:36:13.594Z,980.5
2023-03-30T07:40:15.711Z,980.8
2023-03-30T07:44:18.550Z,980.6
2023-03-30T07:46:20.506Z,980.5
2023-03-30T07:50:24.201Z,980.2
2023-03-30T07:52:26.072Z,980.2
2023-03-30T07:56:29.202Z,980.2
2023-03-30T08:00:32.017Z,980.4
2023-03-30T08:02:33.838Z,980.4
2023-03-30T08:06:36.580Z,980.3
2023-03-30T08:08:38.391Z,980.2
2023-03-30T08:12:40.926Z,980.1
2023-03-30T08:16:43.237Z,980.2
2023-03-30T08:18:44.814Z,980.1
2023-03-30T08:22:47.565Z,980.2
2023-03-30T08:24:49.158Z,980.2
2023-03-30T08:28:52.551Z,980.3
2023-03-30T08:32:55.218Z,980.5
2023-03-30T08:34:56.279Z,980.6
2023-03-30T08:38:59.643Z,980.6
2023-03-30T08:41:01.101Z,980.6
2023-03-30T08:45:04.503Z,980.5
2023-03-30T08:49:07.274Z,980.5
2023-03-30T08:51:08.704Z,980.5
2023-03-30T08:55:10.850Z,980.4
2023-03-30T08:59:13.017Z,979.7
2023-03-30T09:01:14.933Z,979.7
2023-03-30T09:05:17.820Z,979.8
2023-03-30T09:07:19.112Z,979.9
2023-03-30T09:09:20.662Z,979.9
2023-03-30T09:11:22.225Z,979.8
2023-03-30T09:15:34.059Z,979.7
2023-03-30T09:17:26.148Z,979.9
2023-03-30T09:21:29.653Z,979.7
2023-03-30T09:23:31.504Z,979.6
2023-03-30T09:27:34.501Z,979.7
2023-03-30T09:31:37.470Z,979.8
2023-03-30T09:33:38.944Z,979.8
2023-03-30T09:37:42.578Z,979.7
2023-03-30T09:41:45.758Z,979.7
2023-03-30T09:43:48.067Z,979.7
2023-03-30T09:47:51.280Z,979.9
2023-03-30T09:49:53.108Z,979.8
2023-03-30T09:51:54.572Z,979.8
2023-03-30T09:53:56.251Z,979.7
2023-03-30T09:57:59.543Z,979.8
2023-03-30T10:00:00.647Z,979.8
2023-03-30T10:04:03.793Z,979.8
2023-03-30T10:06:04.643Z,979.8
2023-03-30T10:10:07.228Z,979.8
2023-03-30T10:14:09.538Z,979.9
2023-03-30T10:16:10.994Z,980
2023-03-30T10:20:14.358Z,979.8
2023-03-30T10:22:14.886Z,979.8
2023-03-30T10:26:17.858Z,979.8
2023-03-30T10:30:20.074Z,979.9
2023-03-30T10:32:21.764Z,980
2023-03-30T10:36:24.834Z,980
2023-03-30T10:40:27.633Z,980
2023-03-30T10:42:28.797Z,979.9
2023-03-30T10:46:31.611Z,980.1
2023-03-30T10:48:32.480Z,980
2023-03-30T10:52:37.793Z,980.1
2023-03-30T10:56:37.667Z,979.9
2023-03-30T10:58:38.922Z,979.9
2023-03-30T11:02:41.013Z,979.9
2023-03-30T11:04:42.056Z,979.9
2023-03-30T11:08:45.254Z,979.9
2023-03-30T11:12:47.867Z,979.9
2023-03-30T11:14:48.976Z,979.8
2023-03-30T11:18:51.310Z,979.8
2023-03-30T11:22:53.655Z,979.7
2023-03-30T11:24:55.292Z,979.8
2023-03-30T11:28:58.561Z,979.6
2023-03-30T11:30:59.677Z,979.7
2023-03-30T11:35:02.211Z,979.6
2023-03-30T11:39:05.019Z,979.6
2023-03-30T11:41:05.973Z,979.6
2023-03-30T11:45:08.061Z,979.6
2023-03-30T11:47:09.728Z,979.6
2023-03-30T11:51:12.963Z,979.7
2023-03-30T11:55:15.474Z,979.7
2023-03-30T11:57:17.820Z,979.8
2023-03-30T12:01:20.819Z,979.8
2023-03-30T12:05:23.537Z,979.6
2023-03-30T12:07:25.781Z,979.8
2023-03-30T12:11:28.219Z,979.8
2023-03-30T12:13:35.713Z,979.8
2023-03-30T12:15:30.752Z,979.7
2023-03-30T12:17:32.461Z,979.8
2023-03-30T12:21:35.218Z,979.7
2023-03-30T12:23:36.212Z,979.7
2023-03-30T12:27:38.983Z,979.7
2023-03-30T12:30:00.601Z,979.8
2023-03-30T12:33:42.352Z,979.7
2023-03-30T12:37:45.271Z,979.7
2023-03-30T12:39:46.558Z,979.6
2023-03-30T12:43:50.310Z,979.5
2023-03-30T12:45:51.530Z,979.5
2023-03-30T12:49:53.496Z,979.3
2023-03-30T12:53:56.437Z,979.1
2023-03-30T12:55:57.503Z,979.2
2023-03-30T12:59:59.327Z,979.1
2023-03-30T13:04:02.015Z,979.1
2023-03-30T13:06:03.495Z,979.1
2023-03-30T13:10:06.779Z,979.1
2023-03-30T13:12:08.222Z,979.2
2023-03-30T13:16:14.085Z,979.2
2023-03-30T13:20:26.514Z,979.1
2023-03-30T13:22:15.661Z,979.4
2023-03-30T13:26:21.863Z,979.3
2023-03-30T13:28:26.561Z,979.2
2023-03-30T13:32:21.521Z,979.1
2023-03-30T13:36:24.047Z,979
2023-03-30T13:38:25.468Z,978.8
2023-03-30T13:42:28.293Z,978.6
2023-03-30T13:46:31.173Z,978.4
2023-03-30T13:48:41.016Z,978.6
2023-03-30T13:53:27.379Z,978.4
2023-03-30T13:57:31.015Z,978.5
2023-03-30T13:59:32.774Z,978.4
2023-03-30T14:03:35.930Z,978.6
2023-03-30T14:05:36.886Z,978.6
2023-03-30T14:09:39.585Z,978.5
2023-03-30T14:13:41.847Z,978.9
2023-03-30T14:15:43.147Z,979.1
2023-03-30T14:19:46.760Z,978.8
2023-03-30T14:23:49.716Z,979
2023-03-30T14:25:50.837Z,978.8
2023-03-30T14:29:52.825Z,978.9
2023-03-30T14:32:04.779Z,979.1
2023-03-30T14:35:56.845Z,979.1
2023-03-30T14:39:59.996Z,979
2023-03-30T14:42:00.937Z,978.6
2023-03-30T14:46:03.492Z,978.6
2023-03-30T14:48:04.969Z,978.7
2023-03-30T14:52:08.509Z,978.3
2023-03-30T14:56:10.769Z,978.6
2023-03-30T14:58:12.459Z,978.5
2023-03-30T15:02:15.294Z,978.7
2023-03-30T15:06:17.125Z,978.7
2023-03-30T15:08:18.721Z,978.7
2023-03-30T15:12:22.074Z,978.8
2023-03-30T15:14:23.580Z,978.6
2023-03-30T15:16:24.591Z,978.8
2023-03-30T15:18:25.800Z,978.9
2023-03-30T15:22:28.343Z,978.8
2023-03-30T15:24:31.047Z,978.8
2023-03-30T15:28:31.785Z,978.7
2023-03-30T15:30:33.246Z,978.5
2023-03-30T15:34:35.853Z,978.6
2023-03-30T15:38:38.524Z,978.5
2023-03-30T15:40:39.694Z,978.6
2023-03-30T15:44:42.772Z,978.5
2023-03-30T15:46:44.312Z,978.5
2023-03-30T15:50:46.879Z,978.6
2023-03-30T15:54:49.312Z,978.6
2023-03-30T15:56:50.297Z,978.4
2023-03-30T16:00:53.197Z,978.8
2023-03-30T16:04:56.079Z,978.5
2023-03-30T16:06:57.277Z,978.6
2023-03-30T16:11:01.186Z,978.8
2023-03-30T16:13:03.775Z,978.9
2023-03-30T16:17:06.220Z,978.9
2023-03-30T16:21:09.487Z,979
2023-03-30T16:23:10.936Z,979
2023-03-30T16:27:14.043Z,979
2023-03-30T16:29:15.605Z,978.9
2023-03-30T16:33:18.588Z,978.9
2023-03-30T16:37:20.986Z,978.8
2023-03-30T16:39:21.769Z,978.8
2023-03-30T16:43:25.130Z,978.9
2023-03-30T16:47:27.367Z,978.8
2023-03-30T16:49:29.042Z,978.8
2023-03-30T16:53:31.189Z,978.9
2023-03-30T16:55:32.343Z,978.9
2023-03-30T16:59:35.550Z,979
2023-03-30T17:03:38.966Z,979
2023-03-30T17:05:40.252Z,979.1
2023-03-30T17:09:43.082Z,979.1
2023-03-30T17:11:43.965Z,979.1
2023-03-30T17:15:47.214Z,979.1
2023-03-30T17:19:49.276Z,979.3
2023-03-30T17:21:50.444Z,979.3
2023-03-30T17:25:52.852Z,979.3
2023-03-30T17:29:56.192Z,979.3
2023-03-30T17:31:57.460Z,979.2
2023-03-30T17:36:00.463Z,979.3
2023-03-30T17:38:01.968Z,979.5
2023-03-30T17:42:04.988Z,979.3
2023-03-30T17:46:07.839Z,979.4
2023-03-30T17:48:08.860Z,979.4
2023-03-30T17:52:11.567Z,979.5
2023-03-30T17:54:13.403Z,979.5
2023-03-30T17:58:16.828Z,979.5
2023-03-30T18:02:19.323Z,979.6
2023-03-30T18:04:20.551Z,979.7
2023-03-30T18:08:23.244Z,979.7
2023-03-30T18:14:26.982Z,979.7
2023-03-30T18:18:30.255Z,979.8
2023-03-30T18:20:31.719Z,979.8
2023-03-30T18:22:32.635Z,979.9
2023-03-30T18:24:34.280Z,979.8
2023-03-30T18:28:37.278Z,979.9
2023-03-30T18:30:38.689Z,979.9
2023-03-30T18:32:46.894Z,980
2023-03-30T18:34:41.265Z,980
2023-03-30T18:36:42.243Z,980
2023-03-30T18:40:45.143Z,980
2023-03-30T18:42:46.643Z,979.9
2023-03-30T18:44:48.430Z,980
2023-03-30T18:46:49.958Z,980
2023-03-30T18:50:53.453Z,980.1
2023-03-30T18:52:55.045Z,980.1
2023-03-30T18:56:57.997Z,980.2
2023-03-30T19:01:00.643Z,980.2
2023-03-30T19:03:02.125Z,980.2
2023-03-30T19:07:04.816Z,980.3
2023-03-30T19:11:07.308Z,980.4
2023-03-30T19:13:08.688Z,980.4
2023-03-30T19:17:11.691Z,980.4
2023-03-30T19:19:14.982Z,980.3
2023-03-30T19:23:15.872Z,980.4
2023-03-30T19:27:19.239Z,980.3
2023-03-30T19:29:21.124Z,980.3
2023-03-30T19:33:23.772Z,980.3
2023-03-30T19:35:25.717Z,980.3
2023-03-30T19:39:28.612Z,980.2
2023-03-30T19:43:31.418Z,980.3
2023-03-30T19:45:32.648Z,980.4
2023-03-30T19:49:35.453Z,980.4
2023-03-30T19:53:38.481Z,980.4
2023-03-30T19:55:40.145Z,980.3
2023-03-30T19:59:42.553Z,980.5
2023-03-30T20:01:44.409Z,980.7
2023-03-30T20:05:49.046Z,980.7
2023-03-30T20:09:50.531Z,980.5
2023-03-30T20:11:52.031Z,980.4
2023-03-30T20:15:55.393Z,980.3
2023-03-30T20:17:56.740Z,980.2
2023-03-30T20:21:59.986Z,980.2
2023-03-30T20:26:03.456Z,980.2
2023-03-30T20:28:04.895Z,980.3
2023-03-30T20:32:08.334Z,980.3
2023-03-30T20:36:54.800Z,980.2
2023-03-30T20:38:56.338Z,980.2
2023-03-30T20:42:58.768Z,980.4
2023-03-30T20:47:01.371Z,980.6
2023-03-30T20:49:03.090Z,980.7
2023-03-30T20:53:05.868Z,980.7
2023-03-30T20:55:07.529Z,980.6
2023-03-30T20:59:10.469Z,980.6
2023-03-30T21:03:12.896Z,980.5
2023-03-30T21:05:14.196Z,980.4
2023-03-30T21:09:17.602Z,980.2
2023-03-30T21:13:20.780Z,980
2023-03-30T21:15:22.563Z,979.9
2023-03-30T21:19:25.394Z,979.8
2023-03-30T21:21:27.206Z,979.7
2023-03-30T21:25:30.833Z,979.7
2023-03-30T21:29:34.308Z,979.9
2023-03-30T21:31:35.649Z,979.9
2023-03-30T21:35:38.621Z,979.9
2023-03-30T21:37:40.000Z,979.8
2023-03-30T21:41:43.006Z,979.9
2023-03-30T21:45:45.513Z,979.8
2023-03-30T21:47:46.645Z,979.8
2023-03-30T21:51:49.148Z,979.7
2023-03-30T21:55:52.392Z,979.6
2023-03-30T21:57:54.106Z,979.6
2023-03-30T22:01:57.066Z,979.6
2023-03-30T22:03:58.757Z,979.5
2023-03-30T22:05:59.829Z,979.6
2023-03-30T22:08:01.558Z,979.6
2023-03-30T22:12:04.250Z,979.5
2023-03-30T22:14:06.017Z,979.5
2023-03-30T22:16:07.132Z,979.5
2023-03-30T22:18:08.925Z,979.4
2023-03-30T22:20:10.706Z,979.4
2023-03-30T22:24:13.463Z,979.4
2023-03-30T22:26:14.878Z,979.2
2023-03-30T22:28:16.202Z,979.2
2023-03-30T22:30:17.881Z,979.3
2023-03-30T22:34:21.202Z,979.6
2023-03-30T22:40:25.537Z,979.8
2023-03-30T22:44:28.084Z,979.8
2023-03-30T22:46:29.348Z,979.7
2023-03-30T22:50:31.677Z,979.6
2023-03-30T22:54:34.236Z,979.7
2023-03-30T22:56:35.697Z,979.5
2023-03-30T23:00:39.248Z,979.6
2023-03-30T23:02:40.534Z,979.4
2023-03-30T23:06:43.004Z,979.2
2023-03-30T23:10:46.544Z,979.2
2023-03-30T23:12:47.855Z,979.1
2023-03-30T23:16:51.371Z,978.9
2023-03-30T23:18:53.213Z,978.8
2023-03-30T23:22:56.052Z,978.7
2023-03-30T23:26:59.122Z,978.7
2023-03-30T23:29:00.637Z,978.6
2023-03-30T23:33:03.776Z,978.7
2023-03-30T23:37:07.339Z,978.6
2023-03-30T23:39:09.064Z,978.6
2023-03-30T23:43:11.913Z,978.7
2023-03-30T23:45:13.736Z,978.6
2023-03-30T23:49:16.260Z,978.6
2023-03-30T23:53:18.605Z,978.5
2023-03-30T23:55:20.213Z,978.4
2023-03-30T23:59:22.735Z,978.3
